Goldsboro, Maryland
Current Conditions -  °F | °C
As of 6:58 PM on Sunday 21 Dec 2014 (Local Time) from KDOV Reporting Station
Clear Clear  
Wind Chill: 22°   Ceiling: Unl
Heat Index: 29°   Visibility: 10mi
Dew Point: 23°   Wind: 8mph
Humidity: 78%   Direction: 350°N
Pressure: 30.31"   Gusts: NA
Location:  39.03°N, 75.79°W
Report Text: KDOV 212358Z AUTO 35007KT 10SM CLR M01/M05 A3031 RMK AO2 SLP268 T10141048 10053 21014 52013
Loading
Personal Weather Stations






























Interactive Weather Map New forecast layout! Learn more

10-Day Weather Forecast

Advertisements
Track Severe Weather on mobile